DAUO/ELU METAR and TAF weather

Enter ICAO airport designator
Station Type Date Time Source
DAUO METAR 2019/09/20 20:00 UTC NOAA

DAUO 202000Z 10004KT CAVOK 34/12 Q1014


Station Type Date Time Source
DAUO Decoded METAR 2019/09/20 20:00 UTC NOAA

El Oued, Algeria (DAUO) 33-30N 006-07E 63M
Sep 20, 2019 - 04:00 PM EDT / 2019.09.20 2000 UTC
Wind: from the E (100 degrees) at 5 MPH (4 KT):0
Visibility: greater than 7 mile(s):0
Temperature: 93 F (34 C)
Dew Point: 53 F (12 C)
Relative Humidity: 26%
Pressure (altimeter): 29.94 in. Hg (1014 hPa)
ob: DAUO 202000Z 10004KT CAVOK 34/12 Q1014
cycle: 20

Station Type Date Time Source
DAUO TAF 2017/11/09 18:03 UTC NOAA

TAF DAUO 091700Z 0918/1009 28010KT 9999 SCT033 SCT100 PROB30
TEMPO 0918/0924 28015G25KT 5000 -TSRA FEW036CB

Example: see airport list